createdAt,value
2019-05-20T00:04:17.690Z,15
2019-05-20T00:09:20.194Z,16
2019-05-20T00:14:22.604Z,15
2019-05-20T00:19:25.090Z,15
2019-05-20T00:24:27.622Z,14
2019-05-20T00:29:29.975Z,13
2019-05-20T00:34:34.869Z,14
2019-05-20T00:39:34.884Z,15
2019-05-20T00:44:37.351Z,14
2019-05-20T00:49:39.833Z,13
2019-05-20T00:54:42.264Z,16
2019-05-20T00:59:44.751Z,15
2019-05-20T01:04:47.210Z,15
2019-05-20T01:09:49.747Z,16
2019-05-20T01:14:52.096Z,15
2019-05-20T01:19:54.586Z,14
2019-05-20T01:24:57.157Z,14
2019-05-20T01:29:59.493Z,15
2019-05-20T01:35:02.041Z,13
2019-05-20T01:40:04.400Z,13
2019-05-20T01:45:06.839Z,14
2019-05-20T01:50:09.311Z,13
2019-05-20T01:55:11.810Z,15
2019-05-20T02:00:14.261Z,14
2019-05-20T02:05:16.682Z,15
2019-05-20T02:10:19.129Z,16
2019-05-20T02:15:21.623Z,15
2019-05-20T02:20:24.054Z,13
2019-05-20T02:25:26.526Z,14
2019-05-20T02:30:28.961Z,15
2019-05-20T02:35:31.437Z,13
2019-05-20T02:40:33.928Z,14
2019-05-20T02:45:36.336Z,16
2019-05-20T02:50:38.890Z,15
2019-05-20T02:55:41.284Z,16
2019-05-20T03:00:43.726Z,14
2019-05-20T03:05:46.201Z,18
2019-05-20T03:10:48.629Z,15
2019-05-20T03:15:51.115Z,17
2019-05-20T03:25:56.023Z,16
2019-05-20T03:30:58.481Z,18
2019-05-20T03:36:00.926Z,16
2019-05-20T03:41:03.385Z,16
2019-05-20T03:46:05.829Z,16
2019-05-20T03:51:08.284Z,18
2019-05-20T03:56:10.774Z,17
2019-05-20T04:01:13.186Z,18
2019-05-20T04:06:15.730Z,17
2019-05-20T04:11:18.127Z,16
2019-05-20T04:16:20.666Z,16
2019-05-20T04:21:23.211Z,15
2019-05-20T04:26:25.520Z,18
2019-05-20T04:31:27.959Z,19
2019-05-20T04:36:30.431Z,18
2019-05-20T04:41:35.543Z,15
2019-05-20T04:46:35.339Z,19
2019-05-20T04:51:37.791Z,18
2019-05-20T04:56:40.268Z,19
2019-05-20T05:01:42.893Z,17
2019-05-20T05:06:45.222Z,17
2019-05-20T05:11:47.605Z,16
2019-05-20T05:16:50.087Z,16
2019-05-20T05:21:52.517Z,18
2019-05-20T05:26:54.989Z,16
2019-05-20T05:31:57.448Z,16
2019-05-20T05:36:59.932Z,15
2019-05-20T05:42:02.404Z,16
2019-05-20T05:47:04.806Z,15
2019-05-20T05:52:07.282Z,16
2019-05-20T05:57:09.738Z,14
2019-05-20T06:02:12.326Z,15
2019-05-20T06:07:14.646Z,16
2019-05-20T06:12:17.193Z,14
2019-05-20T06:17:19.613Z,14
2019-05-20T06:22:22.011Z,16
2019-05-20T06:27:24.485Z,15
2019-05-20T06:37:29.510Z,13
2019-05-20T06:42:31.960Z,13
2019-05-20T06:47:34.398Z,14
2019-05-20T06:52:36.781Z,14
2019-05-20T06:57:39.339Z,15
2019-05-20T07:02:41.691Z,15
2019-05-20T07:07:44.183Z,13
2019-05-20T07:12:46.615Z,14
2019-05-20T07:17:49.096Z,14
2019-05-20T07:22:55.545Z,15
2019-05-20T07:27:54.040Z,14
2019-05-20T07:32:56.438Z,14
2019-05-20T07:37:58.929Z,15
2019-05-20T07:43:01.461Z,14
2019-05-20T07:48:03.861Z,14
2019-05-20T07:53:06.299Z,13
2019-05-20T07:58:08.775Z,14
2019-05-20T08:03:11.215Z,14
2019-05-20T08:08:13.697Z,14
2019-05-20T08:13:16.125Z,15
2019-05-20T08:18:20.202Z,14
2019-05-20T08:23:21.034Z,14
2019-05-20T08:28:23.513Z,15
2019-05-20T08:33:25.977Z,13
2019-05-20T08:38:28.409Z,15
2019-05-20T08:43:30.913Z,15
2019-05-20T08:48:33.353Z,16
2019-05-20T08:53:35.797Z,18
2019-05-20T08:58:38.284Z,18
2019-05-20T09:03:40.700Z,13
2019-05-20T09:08:43.226Z,20
2019-05-20T09:13:46.025Z,14
2019-05-20T09:18:48.135Z,14
2019-05-20T09:23:50.540Z,15
2019-05-20T09:28:53.132Z,15
2019-05-20T09:33:55.589Z,16
2019-05-20T09:38:58.043Z,19
2019-05-20T09:44:00.382Z,16
2019-05-20T09:49:02.856Z,17
2019-05-20T09:54:05.309Z,19
2019-05-20T09:59:07.804Z,17
2019-05-20T10:04:10.232Z,17
2019-05-20T10:09:12.661Z,16
2019-05-20T10:14:15.129Z,18
2019-05-20T10:19:17.576Z,16
2019-05-20T10:24:20.056Z,14
2019-05-20T10:29:22.526Z,16
2019-05-20T10:34:25.025Z,17
2019-05-20T10:39:27.428Z,16
2019-05-20T10:44:29.874Z,16
2019-05-20T10:49:32.366Z,17
2019-05-20T10:54:35.125Z,17
2019-05-20T10:59:37.266Z,19
2019-05-20T11:04:39.817Z,18
2019-05-20T11:09:42.246Z,19
2019-05-20T11:14:44.637Z,18
2019-05-20T11:19:47.094Z,20
2019-05-20T11:24:49.596Z,21
2019-05-20T11:29:52.053Z,20
2019-05-20T11:34:54.470Z,22
2019-05-20T11:39:56.931Z,20
2019-05-20T11:44:59.458Z,21
2019-05-20T11:50:02.156Z,23
2019-05-20T11:55:04.469Z,21
2019-05-20T12:00:06.951Z,22
2019-05-20T12:05:09.228Z,22
2019-05-20T12:10:11.694Z,21
2019-05-20T12:15:14.160Z,20
2019-05-20T12:20:16.605Z,24
2019-05-20T12:25:19.239Z,23
2019-05-20T12:30:21.648Z,25
2019-05-20T12:35:23.960Z,24
2019-05-20T12:40:26.437Z,24
2019-05-20T12:45:28.976Z,22
2019-05-20T12:50:31.347Z,23
2019-05-20T12:55:33.849Z,24
2019-05-20T13:00:36.259Z,24
2019-05-20T13:05:38.785Z,26
2019-05-20T13:10:41.256Z,24
2019-05-20T13:15:43.641Z,24
2019-05-20T13:20:46.096Z,23
2019-05-20T13:25:48.639Z,21
2019-05-20T13:30:51.032Z,24
2019-05-20T13:35:53.495Z,23
2019-05-20T13:40:55.929Z,23
2019-05-20T13:45:58.575Z,27
2019-05-20T13:51:00.851Z,23
2019-05-20T13:56:03.358Z,23
2019-05-20T14:01:05.763Z,24
2019-05-20T14:06:08.219Z,25
2019-05-20T14:11:10.681Z,22
2019-05-20T14:16:13.134Z,24
2019-05-20T14:21:15.587Z,24
2019-05-20T14:26:18.061Z,23
2019-05-20T14:31:20.541Z,7
2019-05-20T14:36:38.271Z,2
2019-05-20T14:41:25.440Z,2
2019-05-20T14:46:28.014Z,2
2019-05-20T14:51:30.327Z,2
2019-05-20T14:56:32.803Z,1
2019-05-20T15:01:35.273Z,3
2019-05-20T15:06:37.918Z,2
2019-05-20T15:11:40.153Z,1
2019-05-20T15:16:42.635Z,1
2019-05-20T15:21:45.525Z,1
2019-05-20T15:26:47.556Z,1
2019-05-20T15:31:50.023Z,1
2019-05-20T15:36:52.487Z,1
2019-05-20T15:41:54.971Z,1
2019-05-20T15:46:57.447Z,1
2019-05-20T15:51:59.940Z,1
2019-05-20T15:57:02.302Z,2
2019-05-20T16:02:04.805Z,2
2019-05-20T16:07:07.306Z,2
2019-05-20T16:12:09.663Z,1
2019-05-20T16:17:12.118Z,1
2019-05-20T16:22:14.605Z,1
2019-05-20T16:27:17.050Z,1
2019-05-20T16:32:19.563Z,1
2019-05-20T16:37:21.953Z,1
2019-05-20T16:42:24.454Z,1
2019-05-20T16:47:26.996Z,0
2019-05-20T16:52:30.585Z,1
2019-05-20T16:57:31.857Z,0
2019-05-20T17:02:34.268Z,1
2019-05-20T17:07:36.764Z,1
2019-05-20T17:12:39.166Z,1
2019-05-20T17:17:41.704Z,1
2019-05-20T17:22:44.186Z,0
2019-05-20T17:27:46.529Z,1
2019-05-20T17:32:49.042Z,1
2019-05-20T17:37:54.795Z,0
2019-05-20T17:42:53.913Z,1
2019-05-20T17:47:56.365Z,1
2019-05-20T17:52:58.958Z,1
2019-05-20T17:58:01.277Z,1
2019-05-20T18:03:03.802Z,1
2019-05-20T18:08:06.243Z,1
2019-05-20T18:13:08.654Z,2
2019-05-20T18:18:11.113Z,1
2019-05-20T18:23:13.602Z,2
2019-05-20T18:28:16.040Z,2
2019-05-20T18:33:18.505Z,1
2019-05-20T18:38:20.974Z,5
2019-05-20T18:43:23.402Z,4
2019-05-20T18:48:25.948Z,3
2019-05-20T18:53:28.340Z,3
2019-05-20T18:58:30.794Z,2
2019-05-20T19:03:33.969Z,3
2019-05-20T19:08:35.700Z,3
2019-05-20T19:13:38.160Z,3
2019-05-20T19:18:40.813Z,3
2019-05-20T19:23:43.070Z,3
2019-05-20T19:28:45.527Z,3
2019-05-20T19:33:47.995Z,4
2019-05-20T19:38:50.462Z,5
2019-05-20T19:43:52.938Z,4
2019-05-20T19:48:55.431Z,4
2019-05-20T19:53:57.828Z,5
2019-05-20T19:59:00.283Z,6
2019-05-20T20:04:02.899Z,7
2019-05-20T20:09:05.185Z,7
2019-05-20T20:14:07.786Z,7
2019-05-20T20:19:10.192Z,8
2019-05-20T20:24:12.559Z,7
2019-05-20T20:29:15.024Z,8
2019-05-20T20:34:17.481Z,8
2019-05-20T20:39:19.926Z,9
2019-05-20T20:44:23.076Z,10
2019-05-20T20:49:24.944Z,8
2019-05-20T20:54:27.359Z,8
2019-05-20T20:59:29.764Z,9
2019-05-20T21:04:32.241Z,11
2019-05-20T21:09:34.738Z,13
2019-05-20T21:14:37.143Z,14
2019-05-20T21:19:39.695Z,12
2019-05-20T21:24:42.036Z,13
2019-05-20T21:29:44.562Z,14
2019-05-20T21:34:46.980Z,20
2019-05-20T21:39:49.428Z,19
2019-05-20T21:44:51.924Z,19
2019-05-20T21:49:54.439Z,19
2019-05-20T21:54:56.815Z,15
2019-05-20T21:59:59.278Z,13
2019-05-20T22:05:01.849Z,15
2019-05-20T22:10:04.204Z,13
2019-05-20T22:15:06.709Z,18
2019-05-20T22:20:09.228Z,18
2019-05-20T22:25:11.725Z,18
2019-05-20T22:30:14.018Z,18
2019-05-20T22:35:16.465Z,21
2019-05-20T22:40:18.953Z,20
2019-05-20T22:45:21.381Z,18
2019-05-20T22:50:23.906Z,19
2019-05-20T22:55:26.286Z,20
2019-05-20T23:00:28.768Z,25
2019-05-20T23:05:31.233Z,26
2019-05-20T23:10:33.833Z,22
2019-05-20T23:15:36.137Z,22
2019-05-20T23:20:38.786Z,23
2019-05-20T23:25:41.064Z,23
2019-05-20T23:30:43.512Z,24
2019-05-20T23:35:45.982Z,25
2019-05-20T23:40:48.471Z,27
2019-05-20T23:45:50.891Z,23
2019-05-20T23:50:53.405Z,26
2019-05-20T23:55:55.820Z,26
